首页
METAR-TAF:

METAR-TAF

机场 :

Friedman Memorial Airport

Hailey, 爱达荷州, 美国

纬度: 43-30N, 经度: 114-18W, 海拔: 1620米

当前天气观测

该预报发布于35分钟前的00:47 UTC
风速6节,风向东转东南
温度 19°C
湿度 43%
气压 1016 hPa
能見度: 16.1公里
天空无云

METAR: KSUN 010047Z 12006KT 10SM SKC 19/06 A3000

时间: 19:22 (01:22 UTC)

预报

该预报发布于2小时和2分钟前的23:20 UTC
预报有效从01日的 00点(UTC)到 02日的 06点(UTC)
风速7节,风向西南
能見度: 10公里
少量云层高于25000英尺
从 01日的 0100点(UTC)
风速5节,风向西北
能見度: 10公里
少量云层高于25000英尺
从 01日的 1600点(UTC)
风速10节,风向东南
能見度: 10公里
天空无云
从 01日的 1900点(UTC)
风速11节,风向
能見度: 10公里
散云层高于25000英尺

TAF: KSUN 312320Z 0100/0206 23007KT P6SM FEW250 FM010100 31005KT P6SM FEW250 FM011600 13010KT P6SM SKC FM011900 17011KT P6SM SCT250 AMD LTD TO CLD VIS AND WIND 0106/0114

超过4000个机场的气象观测和天气预报(METAR&TAF报告)。

可查询的气象台以黄色和红色小点在地图上表示。

将鼠标移到小点上方,可查看气象台名称。

然后点击查看天气观测和预报。

如需切换地图:点击带黑十字的绿色按钮放大地图;点击带横线的绿色按钮缩小地图;或者点击绿色箭头查看邻近地区的地图。


METAR-TAF: